Terminal Aerodrome Forecast
Issued by NWS Twin Cities, MN

Home | Current Version | Previous Version | Graphics & Text | Print | Product List | Glossary On
Versions: 1 2 3 4 5 6 7 8 9 10 11 12 13 14 15 16 17 18 19 20 21 22 23 24 25 26 27 28 29 30 31 32 33
000
FTUS43 KMPX 270520
TAFMSP
TAF
KMSP 270520Z 2706/2812 VRB03KT P6SM FEW070 BKN150 OVC250
     FM271100 09005KT P6SM VCSH BKN070 OVC150
     FM271300 10007KT 5SM -SHRA BR SCT020 OVC050
      TEMPO 2714/2718 -TSRA OVC020CB
     FM271900 15007KT P6SM SCT040 BKN200=

USA.gov is the U.S. government's official web portal to all federal, state and local government web resources and services.